Etusivu
METAR-TAF:

METAR-TAF

Lentoasemat :

Ringkøbing-Skjern, Tanska

Leveyspiiri: 56-00N, Pituuspiiri: 008-21E, korkeus merenpinnasta: 5 m

Tämänhetkinen sää

Tämä raportti tehtiin 10 tuntia ja 20 minuuttia sitten, kello 13.50 UTC
Tuuli 8 kn idästä/koillisesta
Lämpötila 16°C
Kosteus 82%
Ilmanpaine 1002 hPa
Näkyvyys 10 km tai enemmän
Hajonneita pilviä 7000 ft:n korkeudessa

METAR: EKVJ 281350Z 07008KT 9999 BKN070 16/13 Q1002

Aika: 02:10 (00:10 UTC)

Sääennuste

Tämä raportti tehtiin 15 tuntia ja 30 minuuttia sitten, kello 08.40 UTC
Ennuste voimassa 28. päivästä klo 09 UTC - 28. päivään klo 15 UTC
Tuuli 15 kn idästä
Näkyvyys 10 km tai enemmän
Hajanaisia pilviä 2000 ft:n korkeudessa
heikkoa sadetta

TAF: EKVJ 280840Z 2809/2815 08015KT 9999 -RA SCT020

Säähavainnot ja -ennusteet yli 4000 lentoasemalta (METAR- ja TAF-raportit).

Käytössä olevat sääasemat on merkitty karttaan keltaisilla ja punaisilla pisteillä.

Aseta hiiri pisteen päälle nähdäksesi sääaseman nimen.

Klikkaa sitten nähdäksesi säähavainnot ja -ennusteet.

Kartan vaihtaminen: klikkaa mustalla rastilla varustettuja vihreitä pisteitä, niin voit zoomata sisään; viivalla varustettua vihreää pistettä, niin voit zoomata ulos tai vihreitä nuolia, niin pääset viereisille kartoille.


METAR-TAF: